sensor_id;sensor_type;location;lat;lon;timestamp;pressure;altitude;pressure_sealevel;temperature;humidity
65666;BME280;52365;47.464;18.976;2022-08-20T00:00:00;99214.28;;;23.38;82.85
65666;BME280;52365;47.464;18.976;2022-08-20T00:00:42;99213.00;;;23.40;82.94
65666;BME280;52365;47.464;18.976;2022-08-20T00:01:18;99217.59;;;23.37;83.15
65666;BME280;52365;47.464;18.976;2022-08-20T00:01:54;99218.31;;;23.37;83.47
65666;BME280;52365;47.464;18.976;2022-08-20T00:02:41;99225.13;;;23.36;83.62
65666;BME280;52365;47.464;18.976;2022-08-20T00:03:53;99214.91;;;23.70;82.30
65666;BME280;52365;47.464;18.976;2022-08-20T00:04:29;99217.84;;;23.64;82.07
65666;BME280;52365;47.464;18.976;2022-08-20T00:05:06;99226.66;;;23.62;82.20
65666;BME280;52365;47.464;18.976;2022-08-20T00:05:45;99222.09;;;23.65;82.22
65666;BME280;52365;47.464;18.976;2022-08-20T00:06:23;99225.94;;;23.62;82.28
65666;BME280;52365;47.464;18.976;2022-08-20T00:06:59;99234.00;;;23.60;82.33
65666;BME280;52365;47.464;18.976;2022-08-20T00:07:35;99231.47;;;23.54;82.62
65666;BME280;52365;47.464;18.976;2022-08-20T00:08:12;99232.19;;;23.55;82.91
65666;BME280;52365;47.464;18.976;2022-08-20T00:08:49;99226.13;;;23.56;82.84
65666;BME280;52365;47.464;18.976;2022-08-20T00:09:25;99235.50;;;23.53;82.59
65666;BME280;52365;47.464;18.976;2022-08-20T00:10:03;99236.97;;;23.54;82.62
65666;BME280;52365;47.464;18.976;2022-08-20T00:10:42;99239.34;;;23.58;82.51
65666;BME280;52365;47.464;18.976;2022-08-20T00:11:22;99237.69;;;23.55;82.51
65666;BME280;52365;47.464;18.976;2022-08-20T00:11:59;99233.31;;;23.44;82.76
65666;BME280;52365;47.464;18.976;2022-08-20T00:12:37;99241.06;;;23.38;82.93
65666;BME280;52365;47.464;18.976;2022-08-20T00:13:17;99234.09;;;23.37;83.31
65666;BME280;52365;47.464;18.976;2022-08-20T00:13:57;99237.19;;;23.41;83.65
65666;BME280;52365;47.464;18.976;2022-08-20T00:14:34;99240.81;;;23.51;83.34
65666;BME280;52365;47.464;18.976;2022-08-20T00:15:11;99242.44;;;23.62;82.76
65666;BME280;52365;47.464;18.976;2022-08-20T00:15:48;99240.22;;;23.60;82.42
65666;BME280;52365;47.464;18.976;2022-08-20T00:16:26;99250.84;;;23.64;82.30
65666;BME280;52365;47.464;18.976;2022-08-20T00:17:05;99249.03;;;23.59;82.12
65666;BME280;52365;47.464;18.976;2022-08-20T00:17:41;99254.56;;;23.51;82.26
65666;BME280;52365;47.464;18.976;2022-08-20T00:18:18;99245.03;;;23.52;82.43
65666;BME280;52365;47.464;18.976;2022-08-20T00:18:55;99250.88;;;23.56;82.44
65666;BME280;52365;47.464;18.976;2022-08-20T00:19:31;99252.38;;;23.50;82.38
65666;BME280;52365;47.464;18.976;2022-08-20T00:20:11;99259.34;;;23.51;82.55
65666;BME280;52365;47.464;18.976;2022-08-20T00:20:50;99257.88;;;23.50;82.54
65666;BME280;52365;47.464;18.976;2022-08-20T00:21:27;99257.53;;;23.46;82.57
65666;BME280;52365;47.464;18.976;2022-08-20T00:22:03;99255.69;;;23.48;82.60
65666;BME280;52365;47.464;18.976;2022-08-20T00:22:39;99258.06;;;23.52;82.51
65666;BME280;52365;47.464;18.976;2022-08-20T00:23:17;99256.06;;;23.45;82.56
65666;BME280;52365;47.464;18.976;2022-08-20T00:23:54;99250.25;;;23.25;82.93
65666;BME280;52365;47.464;18.976;2022-08-20T00:24:30;99257.59;;;23.23;83.40
65666;BME280;52365;47.464;18.976;2022-08-20T00:25:08;99253.56;;;23.16;83.55
65666;BME280;52365;47.464;18.976;2022-08-20T00:25:45;99259.06;;;23.24;83.56
65666;BME280;52365;47.464;18.976;2022-08-20T00:26:22;99262.34;;;23.22;83.89
65666;BME280;52365;47.464;18.976;2022-08-20T00:26:59;99261.81;;;23.31;83.67
65666;BME280;52365;47.464;18.976;2022-08-20T00:27:36;99261.19;;;23.48;83.15
65666;BME280;52365;47.464;18.976;2022-08-20T00:28:12;99270.69;;;23.62;82.28
65666;BME280;52365;47.464;18.976;2022-08-20T00:28:49;99277.44;;;23.61;81.58
65666;BME280;52365;47.464;18.976;2022-08-20T00:29:25;99269.25;;;23.54;81.66
65666;BME280;52365;47.464;18.976;2022-08-20T00:30:04;99269.25;;;23.54;81.84
65666;BME280;52365;47.464;18.976;2022-08-20T00:30:42;99252.03;;;23.46;81.80
65666;BME280;52365;47.464;18.976;2022-08-20T00:31:21;99260.16;;;23.13;82.79
65666;BME280;52365;47.464;18.976;2022-08-20T00:31:57;99265.12;;;23.07;83.54
65666;BME280;52365;47.464;18.976;2022-08-20T00:32:56;99261.47;;;23.12;83.83
65666;BME280;52365;47.464;18.976;2022-08-20T00:33:34;99267.53;;;23.10;83.96
65666;BME280;52365;47.464;18.976;2022-08-20T00:34:10;99266.75;;;23.18;83.87
65666;BME280;52365;47.464;18.976;2022-08-20T00:34:46;99271.88;;;23.29;83.71
65666;BME280;52365;47.464;18.976;2022-08-20T00:35:25;99266.72;;;23.41;83.17
65666;BME280;52365;47.464;18.976;2022-08-20T00:36:03;99263.91;;;23.56;82.43
65666;BME280;52365;47.464;18.976;2022-08-20T00:36:41;99264.47;;;23.54;82.29
65666;BME280;52365;47.464;18.976;2022-08-20T00:37:18;99262.81;;;23.51;82.34
65666;BME280;52365;47.464;18.976;2022-08-20T00:37:54;99264.50;;;23.47;82.43
65666;BME280;52365;47.464;18.976;2022-08-20T00:38:35;99264.13;;;23.43;82.45
65666;BME280;52365;47.464;18.976;2022-08-20T00:39:12;99260.09;;;23.44;82.42
65666;BME280;52365;47.464;18.976;2022-08-20T00:39:48;99254.44;;;23.42;82.31
65666;BME280;52365;47.464;18.976;2022-08-20T00:40:34;99259.56;;;23.37;82.27
65666;BME280;52365;47.464;18.976;2022-08-20T00:41:14;99264.50;;;23.39;82.10
65666;BME280;52365;47.464;18.976;2022-08-20T00:41:50;99258.47;;;23.41;82.04
65666;BME280;52365;47.464;18.976;2022-08-20T00:42:26;99265.44;;;23.42;81.99
65666;BME280;52365;47.464;18.976;2022-08-20T00:43:05;99259.72;;;23.40;81.81
65666;BME280;52365;47.464;18.976;2022-08-20T00:43:44;99266.53;;;23.31;81.66
65666;BME280;52365;47.464;18.976;2022-08-20T00:44:22;99256.09;;;23.29;81.88
65666;BME280;52365;47.464;18.976;2022-08-20T00:44:58;99260.72;;;23.27;82.05
65666;BME280;52365;47.464;18.976;2022-08-20T00:45:35;99257.78;;;23.25;82.09
65666;BME280;52365;47.464;18.976;2022-08-20T00:46:19;99255.00;;;23.32;82.05
65666;BME280;52365;47.464;18.976;2022-08-20T00:46:55;99260.16;;;23.28;82.15
65666;BME280;52365;47.464;18.976;2022-08-20T00:47:31;99258.50;;;23.25;82.32
65666;BME280;52365;47.464;18.976;2022-08-20T00:48:07;99259.06;;;23.16;82.45
65666;BME280;52365;47.464;18.976;2022-08-20T00:48:46;99258.72;;;23.12;83.00
65666;BME280;52365;47.464;18.976;2022-08-20T00:49:26;99256.31;;;23.16;83.04
65666;BME280;52365;47.464;18.976;2022-08-20T00:50:04;99253.78;;;23.18;82.91
65666;BME280;52365;47.464;18.976;2022-08-20T00:50:42;99256.69;;;23.12;82.95
65666;BME280;52365;47.464;18.976;2022-08-20T00:51:36;99255.97;;;23.12;82.97
65666;BME280;52365;47.464;18.976;2022-08-20T00:52:17;99252.31;;;23.09;83.03
65666;BME280;52365;47.464;18.976;2022-08-20T00:52:54;99245.94;;;22.92;83.37
65666;BME280;52365;47.464;18.976;2022-08-20T00:53:31;99249.22;;;22.90;83.62
65666;BME280;52365;47.464;18.976;2022-08-20T00:55:00;99247.00;;;22.88;82.58
65666;BME280;52365;47.464;18.976;2022-08-20T00:55:37;99236.41;;;22.93;82.91
65666;BME280;52365;47.464;18.976;2022-08-20T00:56:13;99244.81;;;23.02;82.80
65666;BME280;52365;47.464;18.976;2022-08-20T00:56:54;99241.88;;;22.85;82.67
65666;BME280;52365;47.464;18.976;2022-08-20T00:57:37;99243.34;;;22.63;83.21
65666;BME280;52365;47.464;18.976;2022-08-20T00:58:14;99240.44;;;22.61;83.59
65666;BME280;52365;47.464;18.976;2022-08-20T00:58:51;99242.81;;;22.80;83.44
65666;BME280;52365;47.464;18.976;2022-08-20T00:59:28;99231.25;;;22.89;83.32
65666;BME280;52365;47.464;18.976;2022-08-20T01:00:14;99228.16;;;22.93;82.93
65666;BME280;52365;47.464;18.976;2022-08-20T01:00:51;99225.03;;;22.96;82.67
65666;BME280;52365;47.464;18.976;2022-08-20T01:01:27;99224.66;;;23.00;82.66
65666;BME280;52365;47.464;18.976;2022-08-20T01:02:05;99213.28;;;22.96;82.72
65666;BME280;52365;47.464;18.976;2022-08-20T01:02:43;99216.81;;;22.96;82.78
65666;BME280;52365;47.464;18.976;2022-08-20T01:03:20;99218.41;;;23.07;82.74
65666;BME280;52365;47.464;18.976;2022-08-20T01:03:56;99213.25;;;23.19;82.32
65666;BME280;52365;47.464;18.976;2022-08-20T01:04:34;99212.84;;;23.30;81.74
65666;BME280;52365;47.464;18.976;2022-08-20T01:05:10;99207.03;;;23.18;81.89
65666;BME280;52365;47.464;18.976;2022-08-20T01:05:49;99211.41;;;23.21;82.08
65666;BME280;52365;47.464;18.976;2022-08-20T01:06:25;99216.37;;;23.15;82.51
65666;BME280;52365;47.464;18.976;2022-08-20T01:07:05;99211.75;;;23.25;82.29
65666;BME280;52365;47.464;18.976;2022-08-20T01:07:42;99209.00;;;23.25;82.28
65666;BME280;52365;47.464;18.976;2022-08-20T01:08:21;99200.41;;;23.21;82.56
65666;BME280;52365;47.464;18.976;2022-08-20T01:08:58;99204.97;;;23.26;82.40
65666;BME280;52365;47.464;18.976;2022-08-20T01:09:37;99201.69;;;23.20;82.29
65666;BME280;52365;47.464;18.976;2022-08-20T01:10:17;99194.38;;;23.15;82.10
65666;BME280;52365;47.464;18.976;2022-08-20T01:10:55;99195.69;;;23.14;82.30
65666;BME280;52365;47.464;18.976;2022-08-20T01:11:57;99194.38;;;23.15;82.24
65666;BME280;52365;47.464;18.976;2022-08-20T01:12:34;99194.41;;;23.07;82.40
65666;BME280;52365;47.464;18.976;2022-08-20T01:13:16;99192.75;;;23.12;82.43
65666;BME280;52365;47.464;18.976;2022-08-20T01:13:52;99195.47;;;23.20;82.17
65666;BME280;52365;47.464;18.976;2022-08-20T01:14:30;99191.19;;;23.34;81.58
65666;BME280;52365;47.464;18.976;2022-08-20T01:15:11;99187.97;;;23.20;81.47
65666;BME280;52365;47.464;18.976;2022-08-20T01:15:52;99197.50;;;23.11;81.99
65666;BME280;52365;47.464;18.976;2022-08-20T01:16:30;99195.69;;;23.14;82.25
65666;BME280;52365;47.464;18.976;2022-08-20T01:17:07;99197.06;;;23.30;81.93
65666;BME280;52365;47.464;18.976;2022-08-20T01:17:47;99191.53;;;23.46;81.21
65666;BME280;52365;47.464;18.976;2022-08-20T01:18:25;99204.91;;;23.49;80.84
65666;BME280;52365;47.464;18.976;2022-08-20T01:19:02;99208.41;;;23.42;81.17
65666;BME280;52365;47.464;18.976;2022-08-20T01:19:42;99209.47;;;23.47;81.21
65666;BME280;52365;47.464;18.976;2022-08-20T01:20:23;99210.53;;;23.59;80.96
65666;BME280;52365;47.464;18.976;2022-08-20T01:21:02;99207.59;;;23.57;80.90
65666;BME280;52365;47.464;18.976;2022-08-20T01:21:39;99212.00;;;23.68;80.40
65666;BME280;52365;47.464;18.976;2022-08-20T01:22:23;99214.88;;;23.77;79.93
65666;BME280;52365;47.464;18.976;2022-08-20T01:24:23;99204.22;;;23.81;79.27
65666;BME280;52365;47.464;18.976;2022-08-20T01:25:10;99198.25;;;23.68;79.60
65666;BME280;52365;47.464;18.976;2022-08-20T01:25:51;99199.00;;;23.53;79.47
65666;BME280;52365;47.464;18.976;2022-08-20T01:26:38;99193.13;;;23.56;79.65
65666;BME280;52365;47.464;18.976;2022-08-20T01:27:14;99192.16;;;23.69;79.14
65666;BME280;52365;47.464;18.976;2022-08-20T01:27:51;99187.78;;;23.66;78.74
65666;BME280;52365;47.464;18.976;2022-08-20T01:28:53;99197.12;;;23.71;78.42
65666;BME280;52365;47.464;18.976;2022-08-20T01:29:36;99190.38;;;23.56;77.70
65666;BME280;52365;47.464;18.976;2022-08-20T01:30:14;99188.75;;;23.53;77.91
65666;BME280;52365;47.464;18.976;2022-08-20T01:30:51;99188.69;;;23.61;77.83
65666;BME280;52365;47.464;18.976;2022-08-20T01:31:30;99185.25;;;23.53;77.70
65666;BME280;52365;47.464;18.976;2022-08-20T01:32:07;99185.59;;;23.57;77.50
65666;BME280;52365;47.464;18.976;2022-08-20T01:32:43;99179.59;;;23.51;77.46
65666;BME280;52365;47.464;18.976;2022-08-20T01:33:21;99177.75;;;23.53;77.45
65666;BME280;52365;47.464;18.976;2022-08-20T01:33:59;99173.38;;;23.43;77.23
65666;BME280;52365;47.464;18.976;2022-08-20T01:34:35;99173.94;;;23.41;77.38
65666;BME280;52365;47.464;18.976;2022-08-20T01:35:11;99180.53;;;23.46;77.10
65666;BME280;52365;47.464;18.976;2022-08-20T01:35:48;99181.03;;;23.52;76.79
65666;BME280;52365;47.464;18.976;2022-08-20T01:36:29;99184.87;;;23.56;76.66
65666;BME280;52365;47.464;18.976;2022-08-20T01:37:06;99185.94;;;23.61;76.21
65666;BME280;52365;47.464;18.976;2022-08-20T01:37:42;99181.22;;;23.54;76.10
65666;BME280;52365;47.464;18.976;2022-08-20T01:38:18;99189.12;;;23.50;76.47
65666;BME280;52365;47.464;18.976;2022-08-20T01:38:55;99170.31;;;23.31;76.69
65666;BME280;52365;47.464;18.976;2022-08-20T01:39:34;99183.09;;;23.44;76.71
65666;BME280;52365;47.464;18.976;2022-08-20T01:40:13;99177.25;;;23.40;76.17
65666;BME280;52365;47.464;18.976;2022-08-20T01:42:46;99164.75;;;22.98;78.57
65666;BME280;52365;47.464;18.976;2022-08-20T01:43:24;99165.13;;;22.95;78.18
65666;BME280;52365;47.464;18.976;2022-08-20T01:44:01;99167.66;;;23.00;77.95
65666;BME280;52365;47.464;18.976;2022-08-20T01:44:39;99163.50;;;22.92;77.91
65666;BME280;52365;47.464;18.976;2022-08-20T01:45:17;99156.13;;;22.86;78.17
65666;BME280;52365;47.464;18.976;2022-08-20T01:45:53;99159.09;;;22.88;78.38
65666;BME280;52365;47.464;18.976;2022-08-20T01:46:35;99163.09;;;23.03;77.99
65666;BME280;52365;47.464;18.976;2022-08-20T01:47:15;99163.84;;;22.88;77.87
65666;BME280;52365;47.464;18.976;2022-08-20T01:47:52;99168.25;;;22.76;78.43
65666;BME280;52365;47.464;18.976;2022-08-20T01:48:28;99173.75;;;22.76;78.57
65666;BME280;52365;47.464;18.976;2022-08-20T01:49:12;99174.50;;;22.76;78.51
65666;BME280;52365;47.464;18.976;2022-08-20T01:49:52;99172.84;;;22.73;78.55
65666;BME280;52365;47.464;18.976;2022-08-20T01:50:30;99179.63;;;22.72;78.58
65666;BME280;52365;47.464;18.976;2022-08-20T01:51:18;99182.19;;;22.70;78.64
65666;BME280;52365;47.464;18.976;2022-08-20T01:51:57;99176.88;;;22.80;78.56
65666;BME280;52365;47.464;18.976;2022-08-20T01:52:42;99171.56;;;22.90;78.07
65666;BME280;52365;47.464;18.976;2022-08-20T01:53:32;99171.00;;;22.91;77.46
65666;BME280;52365;47.464;18.976;2022-08-20T01:54:09;99165.88;;;22.80;77.91
65666;BME280;52365;47.464;18.976;2022-08-20T01:54:45;99168.44;;;22.78;78.31
65666;BME280;52365;47.464;18.976;2022-08-20T01:55:22;99164.06;;;22.67;78.54
65666;BME280;52365;47.464;18.976;2022-08-20T01:56:01;99164.06;;;22.67;78.71
65666;BME280;52365;47.464;18.976;2022-08-20T01:56:52;99166.62;;;22.65;78.92
65666;BME280;52365;47.464;18.976;2022-08-20T01:57:29;99165.91;;;22.57;79.15
65666;BME280;52365;47.464;18.976;2022-08-20T01:58:05;99177.28;;;22.61;79.29
65666;BME280;52365;47.464;18.976;2022-08-20T01:58:44;99173.56;;;22.74;79.01
65666;BME280;52365;47.464;18.976;2022-08-20T01:59:21;99182.72;;;22.76;78.94
65666;BME280;52365;47.464;18.976;2022-08-20T01:59:58;99174.50;;;22.76;78.67
65666;BME280;52365;47.464;18.976;2022-08-20T02:00:34;99171.75;;;22.76;78.80
65666;BME280;52365;47.464;18.976;2022-08-20T02:01:37;99176.66;;;22.78;78.98
65666;BME280;52365;47.464;18.976;2022-08-20T02:02:15;99174.59;;;23.09;77.38
65666;BME280;52365;47.464;18.976;2022-08-20T02:02:51;99170.81;;;22.97;77.31
65666;BME280;52365;47.464;18.976;2022-08-20T02:03:27;99172.28;;;22.90;77.35
65666;BME280;52365;47.464;18.976;2022-08-20T02:04:05;99165.50;;;22.91;77.66
65666;BME280;52365;47.464;18.976;2022-08-20T02:04:42;99175.22;;;22.92;77.41
65666;BME280;52365;47.464;18.976;2022-08-20T02:05:19;99175.78;;;22.83;77.69
65666;BME280;52365;47.464;18.976;2022-08-20T02:05:59;99175.59;;;22.73;78.39
65666;BME280;52365;47.464;18.976;2022-08-20T02:06:41;99173.75;;;22.76;78.73
65666;BME280;52365;47.464;18.976;2022-08-20T02:07:21;99182.91;;;22.78;78.70
65666;BME280;52365;47.464;18.976;2022-08-20T02:07:58;99181.28;;;22.75;78.96
65666;BME280;52365;47.464;18.976;2022-08-20T02:08:35;99184.75;;;22.68;79.04
65666;BME280;52365;47.464;18.976;2022-08-20T02:09:11;99184.03;;;22.75;79.01
65666;BME280;52365;47.464;18.976;2022-08-20T02:09:48;99183.66;;;22.71;78.96
65666;BME280;52365;47.464;18.976;2022-08-20T02:10:24;99184.75;;;22.68;79.08
65666;BME280;52365;47.464;18.976;2022-08-20T02:11:01;99186.25;;;22.61;79.24
65666;BME280;52365;47.464;18.976;2022-08-20T02:11:37;99183.69;;;22.48;79.65
65666;BME280;52365;47.464;18.976;2022-08-20T02:12:14;99183.13;;;22.50;80.08
65666;BME280;52365;47.464;18.976;2022-08-20T02:12:51;99181.84;;;22.51;79.82
65666;BME280;52365;47.464;18.976;2022-08-20T02:13:27;99176.19;;;22.56;79.73
65666;BME280;52365;47.464;18.976;2022-08-20T02:14:05;99174.16;;;22.57;79.44
65666;BME280;52365;47.464;18.976;2022-08-20T02:14:46;99176.53;;;22.53;79.40
65666;BME280;52365;47.464;18.976;2022-08-20T02:15:23;99173.22;;;22.16;79.79
65666;BME280;52365;47.464;18.976;2022-08-20T02:15:59;99172.06;;;21.81;80.73
65666;BME280;52365;47.464;18.976;2022-08-20T02:16:38;99174.12;;;21.96;81.62
65666;BME280;52365;47.464;18.976;2022-08-20T02:17:14;99181.06;;;22.04;82.09
65666;BME280;52365;47.464;18.976;2022-08-20T02:17:50;99168.31;;;22.37;80.80
65666;BME280;52365;47.464;18.976;2022-08-20T02:18:26;99164.09;;;22.29;80.95
65666;BME280;52365;47.464;18.976;2022-08-20T02:19:11;99166.47;;;22.32;80.96
65666;BME280;52365;47.464;18.976;2022-08-20T02:19:57;99170.13;;;22.27;80.90
65666;BME280;52365;47.464;18.976;2022-08-20T02:20:34;99169.22;;;22.25;81.63
65666;BME280;52365;47.464;18.976;2022-08-20T02:21:11;99173.62;;;22.35;81.06
65666;BME280;52365;47.464;18.976;2022-08-20T02:21:50;99177.47;;;22.32;80.79
65666;BME280;52365;47.464;18.976;2022-08-20T02:23:22;99179.09;;;22.51;80.22
65666;BME280;52365;47.464;18.976;2022-08-20T02:23:58;99176.34;;;22.58;79.57
65666;BME280;52365;47.464;18.976;2022-08-20T02:24:34;99179.09;;;22.43;79.58
65666;BME280;52365;47.464;18.976;2022-08-20T02:25:11;99179.09;;;22.28;80.71
65666;BME280;52365;47.464;18.976;2022-08-20T02:25:47;99180.91;;;22.25;81.29
65666;BME280;52365;47.464;18.976;2022-08-20T02:26:24;99184.41;;;22.26;81.23
65666;BME280;52365;47.464;18.976;2022-08-20T02:27:00;99181.84;;;22.20;81.22
65666;BME280;52365;47.464;18.976;2022-08-20T02:27:39;99184.38;;;22.10;81.39
65666;BME280;52365;47.464;18.976;2022-08-20T02:28:18;99186.56;;;22.04;81.85
65666;BME280;52365;47.464;18.976;2022-08-20T02:28:55;99183.31;;;22.14;81.86
65666;BME280;52365;47.464;18.976;2022-08-20T02:29:32;99183.50;;;22.23;81.62
65666;BME280;52365;47.464;18.976;2022-08-20T02:30:12;99190.09;;;22.35;81.03
65666;BME280;52365;47.464;18.976;2022-08-20T02:30:52;99180.75;;;22.16;80.16
65666;BME280;52365;47.464;18.976;2022-08-20T02:31:29;99179.84;;;22.44;78.92
65666;BME280;52365;47.464;18.976;2022-08-20T02:32:08;99190.94;;;22.07;79.30
65666;BME280;52365;47.464;18.976;2022-08-20T02:32:44;99189.47;;;22.06;79.96
65666;BME280;52365;47.464;18.976;2022-08-20T02:33:21;99186.19;;;22.08;80.21
65666;BME280;52365;47.464;18.976;2022-08-20T02:33:57;99196.06;;;22.11;80.33
65666;BME280;52365;47.464;18.976;2022-08-20T02:34:34;99196.31;;;22.13;80.50
65666;BME280;52365;47.464;18.976;2022-08-20T02:35:11;99195.34;;;22.10;81.11
65666;BME280;52365;47.464;18.976;2022-08-20T02:35:48;99193.53;;;22.21;81.11
65666;BME280;52365;47.464;18.976;2022-08-20T02:36:25;99190.28;;;22.22;80.89
65666;BME280;52365;47.464;18.976;2022-08-20T02:37:04;99198.69;;;22.24;80.78
65666;BME280;52365;47.464;18.976;2022-08-20T02:37:42;99193.19;;;22.55;79.18
65666;BME280;52365;47.464;18.976;2022-08-20T02:38:19;99199.44;;;22.40;78.40
65666;BME280;52365;47.464;18.976;2022-08-20T02:38:55;99197.59;;;22.27;78.64
65666;BME280;52365;47.464;18.976;2022-08-20T02:39:31;99198.31;;;22.28;79.08
65666;BME280;52365;47.464;18.976;2022-08-20T02:40:09;99200.69;;;22.24;80.02
65666;BME280;52365;47.464;18.976;2022-08-20T02:40:46;99208.56;;;22.27;80.32
65666;BME280;52365;47.464;18.976;2022-08-20T02:41:23;99204.00;;;22.22;80.54
65666;BME280;52365;47.464;18.976;2022-08-20T02:41:59;99208.00;;;22.21;80.77
65666;BME280;52365;47.464;18.976;2022-08-20T02:42:38;99202.09;;;22.02;81.17
65666;BME280;52365;47.464;18.976;2022-08-20T02:43:16;99208.75;;;22.14;81.22
65666;BME280;52365;47.464;18.976;2022-08-20T02:43:54;99203.41;;;22.16;81.37
65666;BME280;52365;47.464;18.976;2022-08-20T02:44:31;99206.00;;;22.14;81.45
65666;BME280;52365;47.464;18.976;2022-08-20T02:45:09;99204.91;;;22.17;81.34
65666;BME280;52365;47.464;18.976;2022-08-20T02:45:46;99208.53;;;22.12;81.26
65666;BME280;52365;47.464;18.976;2022-08-20T02:46:22;99207.28;;;22.13;81.46
65666;BME280;52365;47.464;18.976;2022-08-20T02:46:58;99212.94;;;22.15;81.85
65666;BME280;52365;47.464;18.976;2022-08-20T02:47:36;99203.78;;;22.20;81.99
65666;BME280;52365;47.464;18.976;2022-08-20T02:48:15;99201.41;;;22.24;81.74
65666;BME280;52365;47.464;18.976;2022-08-20T02:48:56;99204.19;;;22.32;81.39
65666;BME280;52365;47.464;18.976;2022-08-20T02:49:32;99196.88;;;22.34;80.73
65666;BME280;52365;47.464;18.976;2022-08-20T02:50:15;99203.06;;;22.20;80.71
65666;BME280;52365;47.464;18.976;2022-08-20T02:50:55;99203.81;;;22.13;81.17
65666;BME280;52365;47.464;18.976;2022-08-20T02:51:31;99206.00;;;22.14;81.53
65666;BME280;52365;47.464;18.976;2022-08-20T02:52:08;99203.38;;;22.01;81.77
65666;BME280;52365;47.464;18.976;2022-08-20T02:52:44;99202.63;;;21.93;82.08
65666;BME280;52365;47.464;18.976;2022-08-20T02:53:22;99209.94;;;21.90;82.46
65666;BME280;52365;47.464;18.976;2022-08-20T02:53:58;99209.41;;;21.99;82.12
65666;BME280;52365;47.464;18.976;2022-08-20T02:54:35;99211.81;;;22.10;81.70
65666;BME280;52365;47.464;18.976;2022-08-20T02:55:12;99210.19;;;22.15;81.28
65666;BME280;52365;47.464;18.976;2022-08-20T02:55:49;99207.03;;;22.03;81.26
65666;BME280;52365;47.464;18.976;2022-08-20T02:56:25;99210.16;;;22.00;81.42
65666;BME280;52365;47.464;18.976;2022-08-20T02:57:02;99207.78;;;22.11;81.36
65666;BME280;52365;47.464;18.976;2022-08-20T02:57:41;99216.09;;;22.34;80.12
65666;BME280;52365;47.464;18.976;2022-08-20T02:58:18;99220.28;;;22.28;79.83
65666;BME280;52365;47.464;18.976;2022-08-20T02:58:54;99221.72;;;22.21;80.00
65666;BME280;52365;47.464;18.976;2022-08-20T02:59:30;99224.47;;;22.21;80.23
65666;BME280;52365;47.464;18.976;2022-08-20T03:00:11;99231.44;;;22.22;80.70
65666;BME280;52365;47.464;18.976;2022-08-20T03:00:48;99236.56;;;22.18;81.21
65666;BME280;52365;47.464;18.976;2022-08-20T03:01:24;99239.31;;;22.26;81.24
65666;BME280;52365;47.464;18.976;2022-08-20T03:02:00;99243.53;;;22.27;81.31
65666;BME280;52365;47.464;18.976;2022-08-20T03:02:36;99244.44;;;22.29;81.25
65666;BME280;52365;47.464;18.976;2022-08-20T03:03:14;99257.25;;;22.27;81.39
65666;BME280;52365;47.464;18.976;2022-08-20T03:03:50;99254.87;;;22.31;81.28
65666;BME280;52365;47.464;18.976;2022-08-20T03:04:28;99258.16;;;22.29;81.28
65666;BME280;52365;47.464;18.976;2022-08-20T03:05:04;99259.25;;;22.26;81.38
65666;BME280;52365;47.464;18.976;2022-08-20T03:05:43;99259.97;;;22.19;81.29
65666;BME280;52365;47.464;18.976;2022-08-20T03:06:19;99257.94;;;22.12;81.04
65666;BME280;52365;47.464;18.976;2022-08-20T03:06:57;99254.66;;;22.14;81.34
65666;BME280;52365;47.464;18.976;2022-08-20T03:07:42;99255.72;;;22.10;81.13
65666;BME280;52365;47.464;18.976;2022-08-20T03:08:19;99266.38;;;22.14;81.08
65666;BME280;52365;47.464;18.976;2022-08-20T03:08:56;99262.34;;;22.15;80.90
65666;BME280;52365;47.464;18.976;2022-08-20T03:09:33;99264.19;;;22.20;80.46
65666;BME280;52365;47.464;18.976;2022-08-20T03:10:10;99261.59;;;22.15;80.35
65666;BME280;52365;47.464;18.976;2022-08-20T03:10:48;99267.41;;;21.96;80.99
65666;BME280;52365;47.464;18.976;2022-08-20T03:11:25;99265.38;;;21.96;81.82
65666;BME280;52365;47.464;18.976;2022-08-20T03:12:02;99269.22;;;21.93;82.18
65666;BME280;52365;47.464;18.976;2022-08-20T03:12:39;99262.28;;;22.00;82.41
65666;BME280;52365;47.464;18.976;2022-08-20T03:13:16;99267.59;;;22.05;82.16
65666;BME280;52365;47.464;18.976;2022-08-20T03:13:53;99262.66;;;22.04;81.92
65666;BME280;52365;47.464;18.976;2022-08-20T03:14:29;99272.53;;;22.07;82.13
65666;BME280;52365;47.464;18.976;2022-08-20T03:15:07;99267.44;;;22.11;82.40
65666;BME280;52365;47.464;18.976;2022-08-20T03:15:47;99288.66;;;22.10;83.08
65666;BME280;52365;47.464;18.976;2022-08-20T03:16:23;99287.41;;;22.19;82.88
65666;BME280;52365;47.464;18.976;2022-08-20T03:17:00;99305.94;;;22.34;82.17
65666;BME280;52365;47.464;18.976;2022-08-20T03:17:36;99316.16;;;22.33;82.28
65666;BME280;52365;47.464;18.976;2022-08-20T03:18:14;99319.81;;;22.28;82.29
65666;BME280;52365;47.464;18.976;2022-08-20T03:18:50;99314.87;;;22.27;82.48
65666;BME280;52365;47.464;18.976;2022-08-20T03:19:27;99322.06;;;22.45;82.01
65666;BME280;52365;47.464;18.976;2022-08-20T03:20:05;99324.66;;;22.66;80.77
65666;BME280;52365;47.464;18.976;2022-08-20T03:20:43;99313.84;;;22.76;79.84
65666;BME280;52365;47.464;18.976;2022-08-20T03:21:19;99305.25;;;22.79;79.75
65666;BME280;52365;47.464;18.976;2022-08-20T03:21:56;99294.97;;;22.65;79.59
65666;BME280;52365;47.464;18.976;2022-08-20T03:22:33;99288.19;;;22.43;80.90
65666;BME280;52365;47.464;18.976;2022-08-20T03:23:11;99287.09;;;22.38;81.69
65666;BME280;52365;47.464;18.976;2022-08-20T03:23:47;99286.53;;;22.32;82.17
65666;BME280;52365;47.464;18.976;2022-08-20T03:24:23;99280.66;;;22.28;82.34
65666;BME280;52365;47.464;18.976;2022-08-20T03:24:59;99283.59;;;22.37;82.22
65666;BME280;52365;47.464;18.976;2022-08-20T03:25:35;99281.97;;;22.50;81.68